sensor_id;sensor_type;location;lat;lon;timestamp;P1;durP1;ratioP1;P2;durP2;ratioP2
11829;SDS011;5972;42.134;24.718;2022-11-23T00:01:11;19.25;;;12.18;;
11829;SDS011;5972;42.134;24.718;2022-11-23T00:03:39;17.45;;;10.80;;
11829;SDS011;5972;42.134;24.718;2022-11-23T00:06:06;22.80;;;10.95;;
11829;SDS011;5972;42.134;24.718;2022-11-23T00:08:33;26.55;;;12.13;;
11829;SDS011;5972;42.134;24.718;2022-11-23T00:11:00;27.48;;;11.35;;
11829;SDS011;5972;42.134;24.718;2022-11-23T00:13:27;16.52;;;10.85;;
11829;SDS011;5972;42.134;24.718;2022-11-23T00:15:55;17.27;;;10.73;;
11829;SDS011;5972;42.134;24.718;2022-11-23T00:18:21;19.83;;;11.32;;
11829;SDS011;5972;42.134;24.718;2022-11-23T00:20:48;21.73;;;11.38;;
11829;SDS011;5972;42.134;24.718;2022-11-23T00:23:18;19.40;;;11.75;;
11829;SDS011;5972;42.134;24.718;2022-11-23T00:25:44;14.80;;;10.77;;
11829;SDS011;5972;42.134;24.718;2022-11-23T00:28:11;16.60;;;10.43;;
11829;SDS011;5972;42.134;24.718;2022-11-23T00:30:38;13.23;;;9.93;;
11829;SDS011;5972;42.134;24.718;2022-11-23T00:33:06;15.40;;;11.25;;
11829;SDS011;5972;42.134;24.718;2022-11-23T00:35:33;19.30;;;11.53;;
11829;SDS011;5972;42.134;24.718;2022-11-23T00:38:00;13.10;;;10.77;;
11829;SDS011;5972;42.134;24.718;2022-11-23T00:40:26;18.85;;;12.00;;
11829;SDS011;5972;42.134;24.718;2022-11-23T00:42:53;14.43;;;10.95;;
11829;SDS011;5972;42.134;24.718;2022-11-23T00:45:20;18.92;;;11.80;;
11829;SDS011;5972;42.134;24.718;2022-11-23T00:47:47;16.63;;;12.00;;
11829;SDS011;5972;42.134;24.718;2022-11-23T00:50:15;16.92;;;11.23;;
11829;SDS011;5972;42.134;24.718;2022-11-23T00:52:42;16.10;;;11.07;;
11829;SDS011;5972;42.134;24.718;2022-11-23T00:55:09;14.05;;;11.38;;
11829;SDS011;5972;42.134;24.718;2022-11-23T00:57:36;13.43;;;10.88;;
11829;SDS011;5972;42.134;24.718;2022-11-23T01:00:03;15.68;;;10.88;;
11829;SDS011;5972;42.134;24.718;2022-11-23T01:02:30;18.63;;;10.52;;
11829;SDS011;5972;42.134;24.718;2022-11-23T01:04:59;15.52;;;11.13;;
11829;SDS011;5972;42.134;24.718;2022-11-23T01:07:27;14.77;;;10.70;;
11829;SDS011;5972;42.134;24.718;2022-11-23T01:09:55;17.25;;;10.10;;
11829;SDS011;5972;42.134;24.718;2022-11-23T01:12:22;16.60;;;11.85;;
11829;SDS011;5972;42.134;24.718;2022-11-23T01:14:51;13.77;;;10.77;;
11829;SDS011;5972;42.134;24.718;2022-11-23T01:17:18;18.80;;;12.43;;
11829;SDS011;5972;42.134;24.718;2022-11-23T01:19:45;20.20;;;12.52;;
11829;SDS011;5972;42.134;24.718;2022-11-23T01:22:12;18.05;;;12.35;;
11829;SDS011;5972;42.134;24.718;2022-11-23T01:24:40;16.10;;;11.70;;
11829;SDS011;5972;42.134;24.718;2022-11-23T01:27:07;14.23;;;10.65;;
11829;SDS011;5972;42.134;24.718;2022-11-23T01:29:34;15.00;;;10.65;;
11829;SDS011;5972;42.134;24.718;2022-11-23T01:32:00;16.40;;;11.38;;
11829;SDS011;5972;42.134;24.718;2022-11-23T01:34:27;16.92;;;10.32;;
11829;SDS011;5972;42.134;24.718;2022-11-23T01:36:54;15.73;;;11.25;;
11829;SDS011;5972;42.134;24.718;2022-11-23T01:39:21;16.88;;;10.63;;
11829;SDS011;5972;42.134;24.718;2022-11-23T01:41:49;14.47;;;10.17;;
11829;SDS011;5972;42.134;24.718;2022-11-23T01:44:26;14.90;;;11.03;;
11829;SDS011;5972;42.134;24.718;2022-11-23T01:46:54;17.13;;;11.57;;
11829;SDS011;5972;42.134;24.718;2022-11-23T01:49:23;14.73;;;10.95;;
11829;SDS011;5972;42.134;24.718;2022-11-23T01:51:52;12.32;;;10.30;;
11829;SDS011;5972;42.134;24.718;2022-11-23T01:54:23;14.60;;;11.43;;
11829;SDS011;5972;42.134;24.718;2022-11-23T01:56:56;14.18;;;11.52;;
11829;SDS011;5972;42.134;24.718;2022-11-23T01:59:26;15.50;;;11.13;;
11829;SDS011;5972;42.134;24.718;2022-11-23T02:01:55;14.63;;;11.30;;
11829;SDS011;5972;42.134;24.718;2022-11-23T02:04:23;14.13;;;11.13;;
11829;SDS011;5972;42.134;24.718;2022-11-23T02:06:54;15.07;;;11.03;;
11829;SDS011;5972;42.134;24.718;2022-11-23T02:09:24;14.63;;;10.90;;
11829;SDS011;5972;42.134;24.718;2022-11-23T02:11:51;15.93;;;10.85;;
11829;SDS011;5972;42.134;24.718;2022-11-23T02:14:20;14.30;;;11.02;;
11829;SDS011;5972;42.134;24.718;2022-11-23T02:16:46;12.75;;;10.73;;
11829;SDS011;5972;42.134;24.718;2022-11-23T02:19:15;15.18;;;10.95;;
11829;SDS011;5972;42.134;24.718;2022-11-23T02:21:54;13.25;;;10.23;;
11829;SDS011;5972;42.134;24.718;2022-11-23T02:24:22;14.20;;;10.98;;
11829;SDS011;5972;42.134;24.718;2022-11-23T02:26:56;15.82;;;10.85;;
11829;SDS011;5972;42.134;24.718;2022-11-23T02:29:23;11.80;;;10.10;;
11829;SDS011;5972;42.134;24.718;2022-11-23T02:31:52;13.68;;;9.90;;
11829;SDS011;5972;42.134;24.718;2022-11-23T02:34:19;12.63;;;9.95;;
11829;SDS011;5972;42.134;24.718;2022-11-23T02:36:46;14.32;;;10.50;;
11829;SDS011;5972;42.134;24.718;2022-11-23T02:39:15;14.15;;;10.07;;
11829;SDS011;5972;42.134;24.718;2022-11-23T02:41:46;13.80;;;9.65;;
11829;SDS011;5972;42.134;24.718;2022-11-23T02:44:20;13.00;;;9.40;;
11829;SDS011;5972;42.134;24.718;2022-11-23T02:46:54;11.27;;;9.40;;
11829;SDS011;5972;42.134;24.718;2022-11-23T02:49:22;11.48;;;9.73;;
11829;SDS011;5972;42.134;24.718;2022-11-23T02:51:49;10.85;;;9.27;;
11829;SDS011;5972;42.134;24.718;2022-11-23T02:54:16;12.10;;;9.32;;
11829;SDS011;5972;42.134;24.718;2022-11-23T02:56:42;11.70;;;9.25;;
11829;SDS011;5972;42.134;24.718;2022-11-23T02:59:09;12.73;;;9.50;;
11829;SDS011;5972;42.134;24.718;2022-11-23T03:01:37;11.20;;;8.88;;
11829;SDS011;5972;42.134;24.718;2022-11-23T03:04:05;11.23;;;8.88;;
11829;SDS011;5972;42.134;24.718;2022-11-23T03:06:31;11.75;;;8.15;;
11829;SDS011;5972;42.134;24.718;2022-11-23T03:08:58;12.45;;;8.32;;
11829;SDS011;5972;42.134;24.718;2022-11-23T03:11:25;9.25;;;7.97;;
11829;SDS011;5972;42.134;24.718;2022-11-23T03:13:52;9.68;;;7.97;;
11829;SDS011;5972;42.134;24.718;2022-11-23T03:16:19;9.35;;;7.60;;
11829;SDS011;5972;42.134;24.718;2022-11-23T03:18:47;10.52;;;8.05;;
11829;SDS011;5972;42.134;24.718;2022-11-23T03:21:15;8.75;;;7.45;;
11829;SDS011;5972;42.134;24.718;2022-11-23T03:23:42;10.55;;;8.10;;
11829;SDS011;5972;42.134;24.718;2022-11-23T03:26:09;11.00;;;7.38;;
11829;SDS011;5972;42.134;24.718;2022-11-23T03:28:35;10.23;;;7.30;;
11829;SDS011;5972;42.134;24.718;2022-11-23T03:31:02;11.38;;;7.60;;
11829;SDS011;5972;42.134;24.718;2022-11-23T03:33:29;8.98;;;7.63;;
11829;SDS011;5972;42.134;24.718;2022-11-23T03:35:57;9.68;;;7.75;;
11829;SDS011;5972;42.134;24.718;2022-11-23T03:38:24;11.98;;;7.80;;
11829;SDS011;5972;42.134;24.718;2022-11-23T03:40:51;8.85;;;7.45;;
11829;SDS011;5972;42.134;24.718;2022-11-23T03:43:17;11.07;;;7.30;;
11829;SDS011;5972;42.134;24.718;2022-11-23T03:45:45;9.63;;;7.13;;
11829;SDS011;5972;42.134;24.718;2022-11-23T03:48:12;9.00;;;6.80;;
11829;SDS011;5972;42.134;24.718;2022-11-23T03:50:39;12.75;;;7.10;;
11829;SDS011;5972;42.134;24.718;2022-11-23T03:53:07;10.07;;;7.72;;
11829;SDS011;5972;42.134;24.718;2022-11-23T03:55:34;10.90;;;8.10;;
11829;SDS011;5972;42.134;24.718;2022-11-23T03:58:01;8.65;;;7.00;;
11829;SDS011;5972;42.134;24.718;2022-11-23T04:00:28;10.18;;;7.53;;
11829;SDS011;5972;42.134;24.718;2022-11-23T04:02:56;7.90;;;6.65;;
11829;SDS011;5972;42.134;24.718;2022-11-23T04:05:23;8.40;;;6.80;;
11829;SDS011;5972;42.134;24.718;2022-11-23T04:07:51;8.55;;;7.22;;
11829;SDS011;5972;42.134;24.718;2022-11-23T04:10:20;10.75;;;7.00;;
11829;SDS011;5972;42.134;24.718;2022-11-23T04:12:49;8.57;;;7.15;;
11829;SDS011;5972;42.134;24.718;2022-11-23T04:15:15;8.75;;;7.30;;
11829;SDS011;5972;42.134;24.718;2022-11-23T04:17:42;10.90;;;6.90;;
11829;SDS011;5972;42.134;24.718;2022-11-23T04:20:10;7.90;;;6.65;;
11829;SDS011;5972;42.134;24.718;2022-11-23T04:22:37;9.43;;;7.07;;
11829;SDS011;5972;42.134;24.718;2022-11-23T04:25:04;9.18;;;6.68;;
11829;SDS011;5972;42.134;24.718;2022-11-23T04:27:32;10.85;;;6.88;;
11829;SDS011;5972;42.134;24.718;2022-11-23T04:29:59;8.38;;;6.57;;
11829;SDS011;5972;42.134;24.718;2022-11-23T04:32:26;9.30;;;6.68;;
11829;SDS011;5972;42.134;24.718;2022-11-23T04:34:53;12.00;;;7.07;;
11829;SDS011;5972;42.134;24.718;2022-11-23T04:37:19;7.25;;;6.38;;
11829;SDS011;5972;42.134;24.718;2022-11-23T04:39:46;7.93;;;6.88;;
11829;SDS011;5972;42.134;24.718;2022-11-23T04:42:13;9.10;;;7.20;;
11829;SDS011;5972;42.134;24.718;2022-11-23T04:44:42;10.77;;;6.97;;
11829;SDS011;5972;42.134;24.718;2022-11-23T04:47:09;9.85;;;6.85;;
11829;SDS011;5972;42.134;24.718;2022-11-23T04:49:36;7.70;;;6.28;;
11829;SDS011;5972;42.134;24.718;2022-11-23T04:52:03;8.13;;;6.10;;
11829;SDS011;5972;42.134;24.718;2022-11-23T04:54:31;7.68;;;5.63;;
11829;SDS011;5972;42.134;24.718;2022-11-23T04:56:58;5.45;;;4.65;;
11829;SDS011;5972;42.134;24.718;2022-11-23T04:59:25;7.63;;;5.40;;
11829;SDS011;5972;42.134;24.718;2022-11-23T05:01:53;5.75;;;5.03;;
11829;SDS011;5972;42.134;24.718;2022-11-23T05:04:20;6.18;;;4.63;;
11829;SDS011;5972;42.134;24.718;2022-11-23T05:06:47;5.82;;;5.18;;
11829;SDS011;5972;42.134;24.718;2022-11-23T05:09:14;6.85;;;4.90;;
11829;SDS011;5972;42.134;24.718;2022-11-23T05:11:41;6.80;;;4.97;;
11829;SDS011;5972;42.134;24.718;2022-11-23T05:14:07;6.20;;;4.57;;
11829;SDS011;5972;42.134;24.718;2022-11-23T05:16:34;6.53;;;5.20;;
11829;SDS011;5972;42.134;24.718;2022-11-23T05:19:02;5.85;;;4.47;;
11829;SDS011;5972;42.134;24.718;2022-11-23T05:21:29;6.10;;;5.00;;
11829;SDS011;5972;42.134;24.718;2022-11-23T05:23:56;5.45;;;4.53;;
11829;SDS011;5972;42.134;24.718;2022-11-23T05:26:22;7.95;;;5.05;;
11829;SDS011;5972;42.134;24.718;2022-11-23T05:28:49;7.70;;;4.47;;
11829;SDS011;5972;42.134;24.718;2022-11-23T05:31:16;7.05;;;4.50;;
11829;SDS011;5972;42.134;24.718;2022-11-23T05:33:50;9.35;;;4.78;;
11829;SDS011;5972;42.134;24.718;2022-11-23T05:36:18;7.45;;;4.75;;
11829;SDS011;5972;42.134;24.718;2022-11-23T05:38:47;6.72;;;4.63;;
11829;SDS011;5972;42.134;24.718;2022-11-23T05:41:13;5.25;;;4.50;;
11829;SDS011;5972;42.134;24.718;2022-11-23T05:43:40;7.85;;;4.82;;
11829;SDS011;5972;42.134;24.718;2022-11-23T05:46:07;7.50;;;4.20;;
11829;SDS011;5972;42.134;24.718;2022-11-23T05:48:34;7.43;;;5.07;;
11829;SDS011;5972;42.134;24.718;2022-11-23T05:51:01;6.97;;;4.93;;
11829;SDS011;5972;42.134;24.718;2022-11-23T05:53:29;7.30;;;4.68;;
11829;SDS011;5972;42.134;24.718;2022-11-23T05:55:57;5.82;;;4.68;;
11829;SDS011;5972;42.134;24.718;2022-11-23T05:58:26;7.65;;;5.30;;
11829;SDS011;5972;42.134;24.718;2022-11-23T06:00:55;8.90;;;5.50;;
11829;SDS011;5972;42.134;24.718;2022-11-23T06:03:28;5.80;;;5.20;;
11829;SDS011;5972;42.134;24.718;2022-11-23T06:05:54;9.68;;;5.45;;
11829;SDS011;5972;42.134;24.718;2022-11-23T06:08:21;8.05;;;5.20;;
11829;SDS011;5972;42.134;24.718;2022-11-23T06:10:49;7.18;;;5.15;;
11829;SDS011;5972;42.134;24.718;2022-11-23T06:13:16;7.40;;;5.47;;
11829;SDS011;5972;42.134;24.718;2022-11-23T06:15:43;8.95;;;5.40;;
11829;SDS011;5972;42.134;24.718;2022-11-23T06:18:10;7.68;;;5.20;;
11829;SDS011;5972;42.134;24.718;2022-11-23T06:20:36;8.77;;;5.22;;
11829;SDS011;5972;42.134;24.718;2022-11-23T06:23:03;6.15;;;5.20;;
11829;SDS011;5972;42.134;24.718;2022-11-23T06:25:30;6.38;;;5.53;;
11829;SDS011;5972;42.134;24.718;2022-11-23T06:27:59;10.07;;;5.68;;
11829;SDS011;5972;42.134;24.718;2022-11-23T06:30:27;9.40;;;5.45;;
11829;SDS011;5972;42.134;24.718;2022-11-23T06:32:54;9.05;;;5.65;;
11829;SDS011;5972;42.134;24.718;2022-11-23T06:35:22;6.90;;;5.63;;
11829;SDS011;5972;42.134;24.718;2022-11-23T06:37:49;11.02;;;5.63;;
11829;SDS011;5972;42.134;24.718;2022-11-23T06:40:17;10.23;;;5.85;;
11829;SDS011;5972;42.134;24.718;2022-11-23T06:42:44;10.75;;;5.78;;
11829;SDS011;5972;42.134;24.718;2022-11-23T06:45:13;9.85;;;6.50;;
11829;SDS011;5972;42.134;24.718;2022-11-23T06:47:41;10.30;;;6.00;;
11829;SDS011;5972;42.134;24.718;2022-11-23T06:50:08;10.35;;;6.43;;
11829;SDS011;5972;42.134;24.718;2022-11-23T06:52:35;8.85;;;6.30;;
11829;SDS011;5972;42.134;24.718;2022-11-23T06:55:02;10.43;;;6.45;;
11829;SDS011;5972;42.134;24.718;2022-11-23T06:57:29;8.82;;;6.15;;
11829;SDS011;5972;42.134;24.718;2022-11-23T06:59:56;9.65;;;6.18;;
11829;SDS011;5972;42.134;24.718;2022-11-23T07:02:24;10.95;;;6.55;;
11829;SDS011;5972;42.134;24.718;2022-11-23T07:04:50;8.82;;;6.63;;
11829;SDS011;5972;42.134;24.718;2022-11-23T07:07:17;11.65;;;6.70;;
11829;SDS011;5972;42.134;24.718;2022-11-23T07:09:44;7.93;;;6.20;;
11829;SDS011;5972;42.134;24.718;2022-11-23T07:12:11;11.80;;;6.53;;
11829;SDS011;5972;42.134;24.718;2022-11-23T07:14:37;10.40;;;6.65;;
11829;SDS011;5972;42.134;24.718;2022-11-23T07:17:04;13.77;;;7.93;;
11829;SDS011;5972;42.134;24.718;2022-11-23T07:19:32;9.32;;;7.13;;
11829;SDS011;5972;42.134;24.718;2022-11-23T07:21:59;10.52;;;6.90;;
11829;SDS011;5972;42.134;24.718;2022-11-23T07:24:26;12.18;;;6.65;;
11829;SDS011;5972;42.134;24.718;2022-11-23T07:26:53;14.52;;;7.13;;
11829;SDS011;5972;42.134;24.718;2022-11-23T07:29:19;12.20;;;7.30;;
11829;SDS011;5972;42.134;24.718;2022-11-23T07:31:47;14.23;;;7.43;;
11829;SDS011;5972;42.134;24.718;2022-11-23T07:34:13;10.77;;;7.32;;
11829;SDS011;5972;42.134;24.718;2022-11-23T07:36:41;10.52;;;6.93;;
11829;SDS011;5972;42.134;24.718;2022-11-23T07:39:08;13.18;;;7.32;;
11829;SDS011;5972;42.134;24.718;2022-11-23T07:41:35;12.60;;;7.90;;
11829;SDS011;5972;42.134;24.718;2022-11-23T07:44:02;11.75;;;7.78;;
11829;SDS011;5972;42.134;24.718;2022-11-23T07:46:29;14.02;;;8.25;;
11829;SDS011;5972;42.134;24.718;2022-11-23T07:48:57;18.52;;;8.60;;
11829;SDS011;5972;42.134;24.718;2022-11-23T07:51:26;20.05;;;9.43;;
11829;SDS011;5972;42.134;24.718;2022-11-23T07:53:54;15.60;;;8.95;;
11829;SDS011;5972;42.134;24.718;2022-11-23T07:56:21;15.70;;;9.25;;
11829;SDS011;5972;42.134;24.718;2022-11-23T07:58:48;19.30;;;9.18;;
11829;SDS011;5972;42.134;24.718;2022-11-23T08:01:15;12.02;;;8.32;;
11829;SDS011;5972;42.134;24.718;2022-11-23T08:03:43;13.65;;;8.73;;
11829;SDS011;5972;42.134;24.718;2022-11-23T08:06:10;12.63;;;8.75;;
11829;SDS011;5972;42.134;24.718;2022-11-23T08:08:37;12.45;;;8.88;;
11829;SDS011;5972;42.134;24.718;2022-11-23T08:11:06;13.60;;;8.45;;
11829;SDS011;5972;42.134;24.718;2022-11-23T08:13:34;14.05;;;7.82;;
11829;SDS011;5972;42.134;24.718;2022-11-23T08:16:01;15.88;;;7.82;;
11829;SDS011;5972;42.134;24.718;2022-11-23T08:18:28;11.40;;;7.63;;
11829;SDS011;5972;42.134;24.718;2022-11-23T08:20:57;16.35;;;7.65;;
11829;SDS011;5972;42.134;24.718;2022-11-23T08:23:25;11.65;;;8.07;;
11829;SDS011;5972;42.134;24.718;2022-11-23T08:25:52;16.20;;;8.32;;
11829;SDS011;5972;42.134;24.718;2022-11-23T08:28:20;19.10;;;8.18;;
11829;SDS011;5972;42.134;24.718;2022-11-23T08:30:47;12.57;;;7.57;;
11829;SDS011;5972;42.134;24.718;2022-11-23T08:33:14;19.10;;;8.32;;
11829;SDS011;5972;42.134;24.718;2022-11-23T08:35:41;15.27;;;8.02;;
11829;SDS011;5972;42.134;24.718;2022-11-23T08:38:08;11.82;;;7.15;;
11829;SDS011;5972;42.134;24.718;2022-11-23T08:40:36;9.80;;;6.65;;
11829;SDS011;5972;42.134;24.718;2022-11-23T08:43:04;12.18;;;8.25;;
11829;SDS011;5972;42.134;24.718;2022-11-23T08:45:32;13.88;;;8.77;;
11829;SDS011;5972;42.134;24.718;2022-11-23T08:47:59;19.67;;;9.02;;
11829;SDS011;5972;42.134;24.718;2022-11-23T08:50:26;12.20;;;8.02;;
11829;SDS011;5972;42.134;24.718;2022-11-23T08:52:54;14.07;;;8.10;;
11829;SDS011;5972;42.134;24.718;2022-11-23T08:55:22;14.38;;;8.27;;
11829;SDS011;5972;42.134;24.718;2022-11-23T08:57:49;13.52;;;8.93;;
11829;SDS011;5972;42.134;24.718;2022-11-23T09:00:16;15.40;;;8.40;;
11829;SDS011;5972;42.134;24.718;2022-11-23T09:02:46;14.77;;;8.25;;
11829;SDS011;5972;42.134;24.718;2022-11-23T09:05:13;13.25;;;7.95;;
11829;SDS011;5972;42.134;24.718;2022-11-23T09:07:39;12.80;;;8.32;;
11829;SDS011;5972;42.134;24.718;2022-11-23T09:10:06;13.50;;;8.48;;
11829;SDS011;5972;42.134;24.718;2022-11-23T09:12:33;12.50;;;8.63;;
11829;SDS011;5972;42.134;24.718;2022-11-23T09:15:00;13.05;;;9.07;;
11829;SDS011;5972;42.134;24.718;2022-11-23T09:17:27;11.80;;;8.30;;
11829;SDS011;5972;42.134;24.718;2022-11-23T09:19:57;9.82;;;7.45;;
11829;SDS011;5972;42.134;24.718;2022-11-23T09:22:24;13.60;;;7.93;;
11829;SDS011;5972;42.134;24.718;2022-11-23T09:24:51;9.68;;;6.55;;
11829;SDS011;5972;42.134;24.718;2022-11-23T09:27:18;8.40;;;6.97;;
11829;SDS011;5972;42.134;24.718;2022-11-23T09:29:45;10.07;;;7.30;;
11829;SDS011;5972;42.134;24.718;2022-11-23T09:32:11;10.88;;;7.65;;
11829;SDS011;5972;42.134;24.718;2022-11-23T09:34:38;12.63;;;7.85;;
11829;SDS011;5972;42.134;24.718;2022-11-23T09:37:06;9.00;;;6.35;;
11829;SDS011;5972;42.134;24.718;2022-11-23T09:39:33;10.90;;;6.28;;
11829;SDS011;5972;42.134;24.718;2022-11-23T09:42:19;10.65;;;6.55;;
11829;SDS011;5972;42.134;24.718;2022-11-23T09:45:05;10.70;;;7.35;;
11829;SDS011;5972;42.134;24.718;2022-11-23T09:47:45;10.05;;;7.55;;
11829;SDS011;5972;42.134;24.718;2022-11-23T09:50:41;12.25;;;7.70;;
11829;SDS011;5972;42.134;24.718;2022-11-23T09:53:14;10.07;;;7.57;;
11829;SDS011;5972;42.134;24.718;2022-11-23T09:55:46;14.30;;;7.60;;
11829;SDS011;5972;42.134;24.718;2022-11-23T09:58:16;8.10;;;7.30;;
11829;SDS011;5972;42.134;24.718;2022-11-23T10:00:45;14.82;;;8.75;;
11829;SDS011;5972;42.134;24.718;2022-11-23T10:03:14;10.25;;;7.80;;
11829;SDS011;5972;42.134;24.718;2022-11-23T10:05:43;11.43;;;8.52;;
11829;SDS011;5972;42.134;24.718;2022-11-23T10:08:21;11.43;;;8.20;;
11829;SDS011;5972;42.134;24.718;2022-11-23T10:10:59;11.45;;;7.88;;
11829;SDS011;5972;42.134;24.718;2022-11-23T10:13:41;9.50;;;7.20;;
11829;SDS011;5972;42.134;24.718;2022-11-23T10:16:20;10.77;;;8.30;;
11829;SDS011;5972;42.134;24.718;2022-11-23T10:18:56;15.77;;;7.88;;
11829;SDS011;5972;42.134;24.718;2022-11-23T10:21:33;9.65;;;6.93;;
11829;SDS011;5972;42.134;24.718;2022-11-23T10:24:16;9.07;;;6.88;;
11829;SDS011;5972;42.134;24.718;2022-11-23T10:26:45;10.10;;;7.53;;
11829;SDS011;5972;42.134;24.718;2022-11-23T10:29:15;10.73;;;6.90;;
11829;SDS011;5972;42.134;24.718;2022-11-23T10:31:46;9.70;;;6.43;;
11829;SDS011;5972;42.134;24.718;2022-11-23T10:34:15;10.70;;;7.90;;
11829;SDS011;5972;42.134;24.718;2022-11-23T10:36:46;10.90;;;8.10;;
11829;SDS011;5972;42.134;24.718;2022-11-23T10:39:18;10.50;;;6.53;;
11829;SDS011;5972;42.134;24.718;2022-11-23T10:41:48;6.90;;;6.20;;
11829;SDS011;5972;42.134;24.718;2022-11-23T10:44:27;9.98;;;6.38;;
11829;SDS011;5972;42.134;24.718;2022-11-23T10:46:56;9.82;;;6.25;;
11829;SDS011;5972;42.134;24.718;2022-11-23T10:49:24;6.80;;;6.10;;
11829;SDS011;5972;42.134;24.718;2022-11-23T10:51:54;10.75;;;6.88;;
11829;SDS011;5972;42.134;24.718;2022-11-23T10:54:25;7.38;;;6.55;;
11829;SDS011;5972;42.134;24.718;2022-11-23T10:56:55;8.88;;;6.80;;
11829;SDS011;5972;42.134;24.718;2022-11-23T10:59:36;9.73;;;6.63;;
11829;SDS011;5972;42.134;24.718;2022-11-23T11:02:14;9.65;;;7.00;;
11829;SDS011;5972;42.134;24.718;2022-11-23T11:04:45;10.73;;;7.05;;
11829;SDS011;5972;42.134;24.718;2022-11-23T11:07:25;14.60;;;7.22;;
11829;SDS011;5972;42.134;24.718;2022-11-23T11:09:55;10.52;;;7.00;;
11829;SDS011;5972;42.134;24.718;2022-11-23T11:12:24;7.90;;;6.90;;
11829;SDS011;5972;42.134;24.718;2022-11-23T11:14:56;8.68;;;7.15;;
11829;SDS011;5972;42.134;24.718;2022-11-23T11:17:28;10.18;;;6.78;;
11829;SDS011;5972;42.134;24.718;2022-11-23T11:19:57;9.18;;;6.75;;
11829;SDS011;5972;42.134;24.718;2022-11-23T11:22:25;9.75;;;6.93;;
11829;SDS011;5972;42.134;24.718;2022-11-23T11:24:59;11.60;;;7.13;;
11829;SDS011;5972;42.134;24.718;2022-11-23T11:27:27;14.25;;;6.70;;
11829;SDS011;5972;42.134;24.718;2022-11-23T11:29:55;8.80;;;7.72;;
11829;SDS011;5972;42.134;24.718;2022-11-23T11:32:29;11.80;;;7.78;;
11829;SDS011;5972;42.134;24.718;2022-11-23T11:35:02;8.88;;;7.65;;
11829;SDS011;5972;42.134;24.718;2022-11-23T11:37:38;10.02;;;7.63;;
11829;SDS011;5972;42.134;24.718;2022-11-23T11:40:12;11.77;;;7.70;;
11829;SDS011;5972;42.134;24.718;2022-11-23T11:42:46;12.68;;;8.15;;
11829;SDS011;5972;42.134;24.718;2022-11-23T11:45:19;12.70;;;8.52;;
11829;SDS011;5972;42.134;24.718;2022-11-23T11:47:51;12.60;;;9.20;;
11829;SDS011;5972;42.134;24.718;2022-11-23T11:50:23;11.85;;;9.07;;
11829;SDS011;5972;42.134;24.718;2022-11-23T11:52:54;11.25;;;8.48;;
11829;SDS011;5972;42.134;24.718;2022-11-23T11:55:27;11.15;;;8.15;;
11829;SDS011;5972;42.134;24.718;2022-11-23T11:58:01;11.35;;;8.70;;
11829;SDS011;5972;42.134;24.718;2022-11-23T12:00:32;11.13;;;8.30;;
11829;SDS011;5972;42.134;24.718;2022-11-23T12:03:03;8.95;;;7.85;;
11829;SDS011;5972;42.134;24.718;2022-11-23T12:05:42;11.43;;;8.27;;
11829;SDS011;5972;42.134;24.718;2022-11-23T12:08:14;9.93;;;8.48;;
11829;SDS011;5972;42.134;24.718;2022-11-23T12:10:49;13.43;;;8.40;;
11829;SDS011;5972;42.134;24.718;2022-11-23T12:13:19;11.23;;;8.30;;
11829;SDS011;5972;42.134;24.718;2022-11-23T12:15:49;10.82;;;7.90;;
11829;SDS011;5972;42.134;24.718;2022-11-23T12:18:27;10.30;;;8.52;;
11829;SDS011;5972;42.134;24.718;2022-11-23T12:21:21;9.18;;;8.20;;
11829;SDS011;5972;42.134;24.718;2022-11-23T12:24:05;11.52;;;8.35;;
11829;SDS011;5972;42.134;24.718;2022-11-23T12:26:43;11.93;;;7.97;;
11829;SDS011;5972;42.134;24.718;2022-11-23T12:29:23;10.55;;;8.27;;
11829;SDS011;5972;42.134;24.718;2022-11-23T12:32:08;10.52;;;8.38;;
11829;SDS011;5972;42.134;24.718;2022-11-23T12:34:56;14.75;;;8.48;;
11829;SDS011;5972;42.134;24.718;2022-11-23T12:37:45;15.90;;;8.70;;
11829;SDS011;5972;42.134;24.718;2022-11-23T12:43:04;11.02;;;8.68;;
11829;SDS011;5972;42.134;24.718;2022-11-23T12:45:53;14.48;;;8.52;;
11829;SDS011;5972;42.134;24.718;2022-11-23T12:48:36;8.70;;;7.82;;
11829;SDS011;5972;42.134;24.718;2022-11-23T12:51:18;11.02;;;8.15;;
11829;SDS011;5972;42.134;24.718;2022-11-23T12:53:54;13.02;;;7.95;;
11829;SDS011;5972;42.134;24.718;2022-11-23T12:56:47;11.07;;;8.63;;
11829;SDS011;5972;42.134;24.718;2022-11-23T12:59:25;11.30;;;8.02;;
11829;SDS011;5972;42.134;24.718;2022-11-23T13:02:02;14.20;;;9.27;;
11829;SDS011;5972;42.134;24.718;2022-11-23T13:04:42;13.45;;;9.00;;
11829;SDS011;5972;42.134;24.718;2022-11-23T13:07:35;10.73;;;7.60;;
11829;SDS011;5972;42.134;24.718;2022-11-23T13:10:29;12.18;;;7.32;;
11829;SDS011;5972;42.134;24.718;2022-11-23T13:13:09;11.10;;;7.55;;
11829;SDS011;5972;42.134;24.718;2022-11-23T13:18:51;11.88;;;6.93;;
11829;SDS011;5972;42.134;24.718;2022-11-23T13:21:28;11.55;;;6.85;;
11829;SDS011;5972;42.134;24.718;2022-11-23T13:23:59;8.82;;;6.82;;
11829;SDS011;5972;42.134;24.718;2022-11-23T13:26:27;11.25;;;7.38;;
11829;SDS011;5972;42.134;24.718;2022-11-23T13:28:55;11.30;;;8.02;;
11829;SDS011;5972;42.134;24.718;2022-11-23T13:31:28;12.82;;;8.00;;
11829;SDS011;5972;42.134;24.718;2022-11-23T13:33:56;10.20;;;8.35;;
11829;SDS011;5972;42.134;24.718;2022-11-23T13:36:38;12.00;;;7.93;;
11829;SDS011;5972;42.134;24.718;2022-11-23T13:42:21;10.50;;;7.45;;
11829;SDS011;5972;42.134;24.718;2022-11-23T13:45:02;9.10;;;7.40;;
11829;SDS011;5972;42.134;24.718;2022-11-23T13:47:56;10.20;;;8.05;;
11829;SDS011;5972;42.134;24.718;2022-11-23T13:50:30;11.57;;;8.23;;
11829;SDS011;5972;42.134;24.718;2022-11-23T13:52:57;12.77;;;8.73;;
11829;SDS011;5972;42.134;24.718;2022-11-23T13:55:27;9.52;;;7.57;;
11829;SDS011;5972;42.134;24.718;2022-11-23T14:01:08;14.48;;;8.32;;
11829;SDS011;5972;42.134;24.718;2022-11-23T14:03:50;9.20;;;8.30;;
11829;SDS011;5972;42.134;24.718;2022-11-23T14:06:22;9.43;;;8.15;;
11829;SDS011;5972;42.134;24.718;2022-11-23T14:08:52;15.55;;;8.15;;
11829;SDS011;5972;42.134;24.718;2022-11-23T14:11:27;12.65;;;8.35;;
11829;SDS011;5972;42.134;24.718;2022-11-23T14:13:56;10.93;;;8.40;;
11829;SDS011;5972;42.134;24.718;2022-11-23T14:16:34;12.18;;;8.52;;
11829;SDS011;5972;42.134;24.718;2022-11-23T14:19:29;12.30;;;9.35;;
11829;SDS011;5972;42.134;24.718;2022-11-23T14:22:02;13.30;;;9.48;;
11829;SDS011;5972;42.134;24.718;2022-11-23T14:24:40;12.30;;;10.18;;
11829;SDS011;5972;42.134;24.718;2022-11-23T14:27:28;11.55;;;9.82;;
11829;SDS011;5972;42.134;24.718;2022-11-23T14:30:19;15.60;;;9.80;;
11829;SDS011;5972;42.134;24.718;2022-11-23T14:32:55;10.98;;;9.07;;
11829;SDS011;5972;42.134;24.718;2022-11-23T14:35:37;14.05;;;8.30;;
11829;SDS011;5972;42.134;24.718;2022-11-23T14:38:30;10.13;;;8.50;;
11829;SDS011;5972;42.134;24.718;2022-11-23T14:41:07;13.98;;;8.57;;
11829;SDS011;5972;42.134;24.718;2022-11-23T14:43:39;15.90;;;9.50;;
11829;SDS011;5972;42.134;24.718;2022-11-23T14:46:12;19.98;;;10.02;;
11829;SDS011;5972;42.134;24.718;2022-11-23T14:48:41;14.32;;;9.00;;
11829;SDS011;5972;42.134;24.718;2022-11-23T14:51:11;16.50;;;9.77;;
11829;SDS011;5972;42.134;24.718;2022-11-23T14:53:40;13.65;;;10.35;;
11829;SDS011;5972;42.134;24.718;2022-11-23T14:56:17;15.77;;;9.85;;
11829;SDS011;5972;42.134;24.718;2022-11-23T14:58:49;15.27;;;10.77;;
11829;SDS011;5972;42.134;24.718;2022-11-23T15:01:18;13.57;;;10.77;;
11829;SDS011;5972;42.134;24.718;2022-11-23T15:03:54;21.40;;;13.18;;
11829;SDS011;5972;42.134;24.718;2022-11-23T15:06:24;21.77;;;13.25;;